Time;durP1;ratioP1;P1;durP2;ratioP2;P2;SDS_P1;SDS_P2;PMS_P1;PMS_P2;Temp;Humidity;BMP_temperature;BMP_pressure;BME280_temperature;BME280_humidity;BME280_pressure;Samples;Min_cycle;Max_cycle;Signal;HPM_P1;HPM_P2
2022/06/02 00:00:45;;;;;;;1999.90;999.90;;;8.80;73.00;;;;;;5111022;28;20049;-85
2022/06/02 00:03:42;;;;;;;1999.90;999.90;;;8.90;72.40;;;;;;5094368;28;20054;-86
2022/06/02 00:06:26;;;;;;;1999.90;999.90;;;8.80;67.10;;;;;;5111934;28;20465;-86
2022/06/02 00:09:11;;;;;;;1999.90;999.90;;;8.80;65.70;;;;;;5111939;28;20044;-86
2022/06/02 00:11:53;;;;;;;1999.90;999.90;;;8.80;66.50;;;;;;5112521;28;20059;-86
2022/06/02 00:14:22;;;;;;;1999.90;999.90;;;8.80;65.60;;;;;;5112892;28;20054;-86
2022/06/02 00:16:57;;;;;;;1999.90;999.90;;;8.80;61.10;;;;;;5113208;28;20078;-86
2022/06/02 00:19:28;;;;;;;1999.90;999.90;;;8.80;57.50;;;;;;5112897;28;20054;-86
2022/06/02 00:22:03;;;;;;;1999.90;999.90;;;9.10;60.10;;;;;;5111727;28;20084;-86
2022/06/02 00:24:40;;;;;;;1999.90;999.90;;;8.70;54.60;;;;;;5113112;28;20043;-85
2022/06/02 00:27:14;;;;;;;1999.90;999.90;;;8.70;58.00;;;;;;5112675;28;20468;-85
2022/06/02 00:30:05;;;;;;;1999.90;999.90;;;8.70;59.80;;;;;;5113076;28;20054;-85
2022/06/02 00:32:51;;;;;;;1999.90;999.90;;;8.70;64.10;;;;;;5111790;28;20040;-86
2022/06/02 00:35:25;;;;;;;1999.90;999.90;;;8.70;59.20;;;;;;5077233;28;20050;-85
2022/06/02 00:38:21;;;;;;;1999.90;999.90;;;8.90;59.60;;;;;;5112347;28;20054;-86
2022/06/02 00:40:47;;;;;;;1999.90;999.90;;;9.00;55.90;;;;;;5112242;28;20048;-85
2022/06/02 00:43:30;;;;;;;1999.90;999.90;;;9.60;56.60;;;;;;5111982;28;20054;-85
2022/06/02 00:46:32;;;;;;;1999.90;999.90;;;8.90;53.50;;;;;;5112060;28;20551;-85
2022/06/02 00:49:21;;;;;;;1999.90;999.90;;;8.80;55.70;;;;;;5111834;28;20380;-87
2022/06/02 00:51:54;;;;;;;1999.90;999.90;;;8.80;52.00;;;;;;5112002;28;20050;-85
2022/06/02 00:57:37;;;;;;;1999.90;999.90;;;8.70;44.70;;;;;;5111378;28;20044;-85
2022/06/02 01:00:09;;;;;;;1999.90;999.90;;;8.60;47.00;;;;;;5110870;28;20058;-85
2022/06/02 01:02:55;;;;;;;1999.90;999.90;;;8.60;49.10;;;;;;5109787;28;20149;-85
2022/06/02 01:05:58;;;;;;;1999.90;999.90;;;9.10;46.30;;;;;;5111692;28;20119;-84
2022/06/02 01:08:54;;;;;;;1999.90;999.90;;;8.60;42.00;;;;;;5111107;28;20440;-85
2022/06/02 01:11:57;;;;;;;1999.90;999.90;;;8.50;43.90;;;;;;5110422;28;20055;-85
2022/06/02 01:14:34;;;;;;;1999.90;999.90;;;8.50;44.70;;;;;;5111246;28;20058;-85
2022/06/02 01:17:38;;;;;;;1999.90;999.90;;;8.40;43.60;;;;;;5111100;28;20135;-86
2022/06/02 01:20:21;;;;;;;1999.90;999.90;;;8.30;45.30;;;;;;5111428;28;20055;-86
2022/06/02 01:23:02;;;;;;;1999.90;999.90;;;8.40;44.70;;;;;;5110735;28;20127;-85
2022/06/02 01:25:56;;;;;;;1999.90;999.90;;;8.40;46.50;;;;;;5111280;28;20525;-86
2022/06/02 01:28:46;;;;;;;1999.90;999.90;;;8.40;44.90;;;;;;5091735;28;20044;-86
2022/06/02 01:31:54;;;;;;;1999.90;999.90;;;8.40;39.40;;;;;;5110777;28;20094;-86
2022/06/02 01:34:45;;;;;;;1999.90;999.90;;;8.40;41.00;;;;;;5092815;28;20372;-85
2022/06/02 01:37:26;;;;;;;1999.90;999.90;;;8.40;33.10;;;;;;5075673;28;20393;-86
2022/06/02 01:40:06;;;;;;;1999.90;999.90;;;8.30;36.00;;;;;;5110964;28;20048;-86
2022/06/02 01:42:56;;;;;;;1999.90;999.90;;;8.30;33.70;;;;;;5111117;28;20472;-86
2022/06/02 01:45:41;;;;;;;1999.90;999.90;;;8.30;33.10;;;;;;5110544;28;20047;-86
2022/06/02 01:48:16;;;;;;;1999.90;999.90;;;8.20;30.70;;;;;;5091751;28;20043;-86
2022/06/02 01:51:07;;;;;;;1999.90;999.90;;;9.90;28.80;;;;;;5111223;28;20055;-86
2022/06/02 01:53:41;;;;;;;1999.90;999.90;;;8.70;26.50;;;;;;5110321;28;20200;-86
2022/06/02 01:56:41;;;;;;;1999.90;999.90;;;8.20;28.50;;;;;;5092410;28;20495;-86
2022/06/02 01:59:31;;;;;;;1900.45;840.55;;;8.20;24.90;;;;;;5110917;28;20428;-85
2022/06/02 02:02:05;;;;;;;1999.90;999.90;;;8.20;22.00;;;;;;5109810;28;20048;-85
2022/06/02 02:04:49;;;;;;;1999.90;999.90;;;8.10;24.50;;;;;;5092507;28;20043;-86
2022/06/02 02:07:40;;;;;;;1999.90;999.90;;;8.10;26.70;;;;;;5092796;28;20047;-86
2022/06/02 02:10:37;;;;;;;1999.90;999.90;;;8.10;21.50;;;;;;5110640;28;20130;-86
2022/06/02 02:13:38;;;;;;;1999.90;999.90;;;8.10;27.00;;;;;;5110493;28;20389;-87
2022/06/02 02:16:25;;;;;;;1999.90;999.90;;;8.10;24.60;;;;;;5110676;28;20052;-85
2022/06/02 02:19:20;;;;;;;1999.90;999.90;;;8.10;20.50;;;;;;5110899;28;20124;-86
2022/06/02 02:22:03;;;;;;;1999.90;999.90;;;8.00;17.70;;;;;;5110614;28;20510;-85
2022/06/02 02:25:06;;;;;;;1999.90;999.90;;;8.10;17.90;;;;;;5115097;28;20040;-85
2022/06/02 02:28:03;;;;;;;1999.90;999.90;;;8.10;14.20;;;;;;5115116;28;20484;-86
2022/06/02 02:30:55;;;;;;;1999.90;999.90;;;8.10;14.70;;;;;;5114471;28;20051;-86
2022/06/02 02:33:26;;;;;;;1999.90;999.90;;;8.20;14.20;;;;;;5115069;28;20464;-86
2022/06/02 02:36:10;;;;;;;1999.90;999.90;;;8.10;7.40;;;;;;5114973;28;20048;-86
2022/06/02 02:38:55;;;;;;;1999.90;999.90;;;8.00;8.20;;;;;;5114634;28;20103;-85
2022/06/02 02:41:42;;;;;;;1999.90;999.90;;;8.10;7.80;;;;;;5114524;28;20044;-86
2022/06/02 02:44:37;;;;;;;1999.90;999.90;;;8.00;9.00;;;;;;5114037;28;20126;-86
2022/06/02 02:47:21;;;;;;;1999.90;999.90;;;8.00;8.40;;;;;;5114775;28;20086;-86
2022/06/02 02:49:53;;;;;;;1999.90;999.90;;;8.00;14.20;;;;;;5096560;28;20156;-86
2022/06/02 02:52:53;;;;;;;1999.90;999.90;;;9.60;23.50;;;;;;5096116;28;20400;-86
2022/06/02 02:55:41;;;;;;;1999.90;999.90;;;8.10;21.90;;;;;;5096180;28;20051;-85
2022/06/02 02:58:47;;;;;;;1999.90;999.90;;;8.00;19.50;;;;;;5061654;28;20048;-85
2022/06/02 03:01:35;;;;;;;1999.90;999.90;;;8.00;14.80;;;;;;5111910;28;20145;-84
2022/06/02 03:04:18;;;;;;;1999.90;999.90;;;8.10;12.80;;;;;;5114350;28;20048;-85
2022/06/02 03:06:44;;;;;;;1999.90;999.90;;;8.10;6.80;;;;;;5113101;28;20468;-85
2022/06/02 03:09:32;;;;;;;1999.90;999.90;;;9.00;6.70;;;;;;5078154;28;20108;-86
2022/06/02 03:12:16;;;;;;;1999.90;999.90;;;8.10;5.90;;;;;;5131267;28;20056;-85
2022/06/02 03:15:06;;;;;;;1676.57;672.55;;;8.00;5.50;;;;;;5114078;28;20059;-85
2022/06/02 03:18:11;;;;;;;1999.90;999.90;;;8.00;2.90;;;;;;5113304;28;20066;-85
2022/06/02 03:21:06;;;;;;;1730.60;570.13;;;8.00;6.00;;;;;;5113837;28;20127;-86
2022/06/02 03:23:38;;;;;;;1999.90;999.90;;;8.00;8.60;;;;;;5094011;28;20059;-86
2022/06/02 03:26:50;;;;;;;1999.90;999.90;;;8.00;10.40;;;;;;5113074;28;20515;-85
2022/06/02 03:29:52;;;;;;;1999.90;999.90;;;8.00;4.90;;;;;;4993574;28;20104;-85
2022/06/02 03:32:33;;;;;;;1999.90;999.90;;;8.00;1.00;;;;;;5010545;28;20465;-86
2022/06/02 03:35:29;;;;;;;1999.90;999.90;;;8.00;6.10;;;;;;5099641;28;20108;-85
2022/06/02 03:38:24;;;;;;;1999.90;999.90;;;8.10;8.90;;;;;;5094774;28;20132;-86
2022/06/02 03:41:09;;;;;;;1999.90;999.90;;;8.00;8.10;;;;;;5112874;28;20089;-86
2022/06/02 03:43:41;;;;;;;1999.90;999.90;;;8.10;8.40;;;;;;5112998;28;20047;-85
2022/06/02 03:46:26;;;;;;;1999.90;999.90;;;8.10;3.30;;;;;;5113605;28;20066;-85
2022/06/02 03:49:28;;;;;;;1999.90;999.90;;;8.20;1.00;;;;;;5094701;28;20054;-85
2022/06/02 03:52:19;;;;;;;1999.90;999.90;;;8.00;2.40;;;;;;5112968;28;20050;-86
2022/06/02 03:54:49;;;;;;;1999.90;999.90;;;8.00;1.00;;;;;;5112360;28;20457;-86
2022/06/02 03:57:40;;;;;;;1999.90;999.90;;;8.00;5.30;;;;;;5113027;28;20040;-85
2022/06/02 04:00:11;;;;;;;1999.90;999.90;;;7.80;1.00;;;;;;5094955;28;20122;-87
2022/06/02 04:02:52;;;;;;;1643.03;675.10;;;8.00;6.70;;;;;;5112156;28;20063;-85
2022/06/02 04:05:26;;;;;;;1999.90;999.90;;;7.80;2.80;;;;;;5113168;28;20083;-87
2022/06/02 04:07:58;;;;;;;1999.90;999.90;;;8.00;1.00;;;;;;5112744;28;20047;-87
2022/06/02 04:10:45;;;;;;;1999.90;999.90;;;8.00;3.00;;;;;;5112560;28;20131;-86
2022/06/02 04:13:37;;;;;;;1999.90;999.90;;;9.40;1.00;;;;;;5094806;28;20059;-87
2022/06/02 04:16:19;;;;;;;1999.90;999.90;;;8.00;6.50;;;;;;5112768;28;20167;-85
2022/06/02 04:22:43;;;;;;;1999.90;999.90;;;8.00;2.80;;;;;;5052177;28;20070;-86
2022/06/02 04:25:17;;;;;;;1999.90;999.90;;;8.10;13.40;;;;;;5112766;28;20108;-86
2022/06/02 04:27:55;;;;;;;1999.90;999.90;;;8.10;6.40;;;;;;5112992;28;20100;-85
2022/06/02 04:30:47;;;;;;;1999.90;999.90;;;8.10;5.00;;;;;;5077281;28;20071;-86
2022/06/02 04:33:27;;;;;;;1999.90;999.90;;;8.10;2.60;;;;;;5112614;28;20059;-86
2022/06/02 04:36:31;;;;;;;1999.90;999.90;;;8.20;3.30;;;;;;5112661;28;20050;-86
2022/06/02 04:39:08;;;;;;;1999.90;999.90;;;8.20;9.30;;;;;;5112342;28;20043;-86
2022/06/02 04:41:53;;;;;;;1999.90;999.90;;;8.20;9.90;;;;;;5112662;28;20074;-86
2022/06/02 04:45:00;;;;;;;1999.90;999.90;;;8.20;10.10;;;;;;5094227;28;20047;-87
2022/06/02 04:47:36;;;;;;;1999.90;999.90;;;7.90;11.90;;;;;;5111367;28;20165;-87
2022/06/02 04:50:14;;;;;;;1999.90;999.90;;;8.20;3.60;;;;;;5077327;28;20044;-86
2022/06/02 04:52:54;;;;;;;1999.90;999.90;;;8.30;26.60;;;;;;5112433;28;20047;-86
2022/06/02 04:55:26;;;;;;;1999.90;999.90;;;8.70;67.40;;;;;;5112448;28;20477;-88
2022/06/02 04:57:52;;;;;;;1999.90;999.90;;;9.20;99.90;;;;;;5094341;28;20054;-88
2022/06/02 05:00:21;;;;;;;1999.90;999.90;;;8.90;99.90;;;;;;5094311;28;20456;-88
2022/06/02 05:03:04;;;;;;;1999.90;999.90;;;8.70;99.90;;;;;;5111156;28;20047;-86
2022/06/02 05:05:48;;;;;;;1999.90;999.90;;;8.80;97.20;;;;;;5110894;28;20506;-86
2022/06/02 05:08:59;;;;;;;1999.90;999.90;;;8.70;97.00;;;;;;5111093;28;20047;-86
2022/06/02 05:11:43;;;;;;;1999.90;999.90;;;8.80;93.50;;;;;;5097864;28;20134;-86
2022/06/02 05:14:29;;;;;;;1999.90;999.90;;;8.90;88.50;;;;;;5111933;28;20090;-86
2022/06/02 05:17:15;;;;;;;1999.90;999.90;;;9.00;92.90;;;;;;5111814;28;20101;-86
2022/06/02 05:19:53;;;;;;;1999.90;999.90;;;9.10;99.90;;;;;;5111422;28;20385;-86
2022/06/02 05:22:34;;;;;;;1999.90;999.90;;;9.20;92.10;;;;;;5111233;28;20043;-87
2022/06/02 05:25:00;;;;;;;1999.90;999.90;;;9.70;90.20;;;;;;5110648;28;20149;-88
2022/06/02 05:27:50;;;;;;;1999.90;999.90;;;9.60;78.50;;;;;;5110979;28;20043;-87
2022/06/02 05:30:25;;;;;;;1999.90;999.90;;;9.30;83.90;;;;;;5111039;28;20539;-87
2022/06/02 05:33:12;;;;;;;1999.90;999.90;;;9.40;75.80;;;;;;5111183;28;20116;-87
2022/06/02 05:35:56;;;;;;;1999.90;999.90;;;9.40;66.80;;;;;;5110784;28;20054;-81
2022/06/02 05:38:41;;;;;;;1999.90;999.90;;;9.40;50.50;;;;;;5109780;28;20044;-88
2022/06/02 05:41:24;;;;;;;1999.90;999.90;;;9.40;47.30;;;;;;5111551;28;20039;-86
2022/06/02 05:44:08;;;;;;;1999.90;999.90;;;9.40;79.30;;;;;;5111509;28;20052;-86
2022/06/02 05:46:45;;;;;;;1999.90;999.90;;;9.50;81.30;;;;;;5092982;28;20044;-86
2022/06/02 05:49:19;;;;;;;1999.90;999.90;;;9.60;68.00;;;;;;5111887;28;20079;-86
2022/06/02 05:52:15;;;;;;;1999.90;999.90;;;9.60;64.50;;;;;;5110952;28;20118;-86
2022/06/02 05:55:13;;;;;;;1999.90;999.90;;;9.60;71.50;;;;;;5110727;28;20495;-86
2022/06/02 05:57:57;;;;;;;1999.90;999.90;;;9.80;72.50;;;;;;5112628;28;20040;-86
2022/06/02 06:00:35;;;;;;;1999.90;999.90;;;9.90;72.40;;;;;;5115816;28;20410;-87
2022/06/02 06:03:34;;;;;;;1999.90;999.90;;;9.90;65.90;;;;;;5114421;28;20043;-87
2022/06/02 06:06:21;;;;;;;1383.75;573.35;;;10.00;60.90;;;;;;5115511;28;20468;-88
2022/06/02 06:09:14;;;;;;;1999.90;999.90;;;10.10;93.80;;;;;;5115175;28;20070;-88
2022/06/02 06:12:02;;;;;;;1999.90;999.90;;;10.20;59.30;;;;;;5114536;28;20063;-87
2022/06/02 06:14:49;;;;;;;1598.85;764.03;;;10.30;26.00;;;;;;5097311;28;20454;-88
2022/06/02 06:17:45;;;;;;;1642.55;769.33;;;10.50;15.00;;;;;;5115352;28;20055;-87
2022/06/02 06:20:17;;;;;;;1999.90;999.90;;;10.60;1.00;;;;;;5116161;28;20052;-87
2022/06/02 06:23:26;;;;;;;1999.90;999.90;;;10.70;1.00;;;;;;5115842;28;20043;-88
2022/06/02 06:26:30;;;;;;;1999.90;999.90;;;10.80;1.00;;;;;;5097471;28;20047;-86
2022/06/02 06:29:01;;;;;;;1999.90;999.90;;;10.90;1.00;;;;;;5115830;28;20047;-87
2022/06/02 06:31:37;;;;;;;1999.90;999.90;;;11.00;1.00;;;;;;5097143;28;20393;-87
2022/06/02 06:34:25;;;;;;;867.33;138.57;;;11.00;1.00;;;;;;5097747;28;20403;-88
2022/06/02 06:37:18;;;;;;;1775.28;799.58;;;11.00;1.00;;;;;;5097437;28;20096;-87
2022/06/02 06:40:06;;;;;;;1999.90;999.90;;;11.10;14.40;;;;;;5096665;28;20052;-86
2022/06/02 06:42:49;;;;;;;1206.00;535.30;;;11.10;17.00;;;;;;5097099;28;20367;-88
2022/06/02 06:45:35;;;;;;;1999.90;999.90;;;11.20;21.90;;;;;;5096918;28;20126;-86
2022/06/02 06:48:09;;;;;;;1999.90;999.90;;;12.20;52.80;;;;;;5114851;28;20130;-86
2022/06/02 06:50:43;;;;;;;1999.90;999.90;;;11.30;70.20;;;;;;5096816;28;20111;-86
2022/06/02 06:53:27;;;;;;;1999.90;999.90;;;12.50;96.20;;;;;;5115142;28;20276;-86
2022/06/02 06:56:15;;;;;;;1999.90;999.90;;;11.40;99.90;;;;;;5114657;28;20054;-86
2022/06/02 06:58:59;;;;;;;1999.90;999.90;;;11.40;99.90;;;;;;5062069;28;20059;-86
2022/06/02 07:01:38;;;;;;;1999.90;999.90;;;11.60;99.90;;;;;;5095607;28;20138;-85
2022/06/02 07:04:23;;;;;;;1999.90;999.90;;;11.60;99.90;;;;;;5114621;28;20086;-86
2022/06/02 07:07:22;;;;;;;1324.90;287.52;;;12.60;99.90;;;;;;5114140;28;20040;-87
2022/06/02 07:10:06;;;;;;;1999.90;786.55;;;14.30;99.90;;;;;;5095232;28;20044;-86
2022/06/02 07:12:51;;;;;;;1999.90;625.78;;;15.10;99.90;;;;;;5114536;28;20056;-86
2022/06/02 07:15:28;;;;;;;1999.90;726.53;;;15.80;99.90;;;;;;5096206;28;20047;-85
2022/06/02 07:18:15;;;;;;;1490.93;411.93;;;16.40;99.90;;;;;;5114016;28;20438;-86
2022/06/02 07:21:00;;;;;;;1999.90;999.90;;;17.10;41.80;;;;;;5114385;28;20077;-85
2022/06/02 07:23:28;;;;;;;1999.90;999.90;;;17.30;1.00;;;;;;5113980;28;20400;-85
2022/06/02 07:26:17;;;;;;;1999.90;974.10;;;17.90;1.00;;;;;;5114074;28;20059;-85
2022/06/02 07:28:49;;;;;;;1999.90;920.63;;;17.70;1.00;;;;;;5094639;28;20036;-85
2022/06/02 07:31:26;;;;;;;1999.90;999.90;;;17.30;1.00;;;;;;5113819;28;20071;-86
2022/06/02 07:34:05;;;;;;;1978.95;584.20;;;16.80;1.00;;;;;;5113919;28;20055;-86
2022/06/02 07:36:57;;;;;;;1999.90;775.85;;;16.70;1.00;;;;;;5078866;28;20491;-85
2022/06/02 07:39:46;;;;;;;1999.90;999.90;;;16.60;1.00;;;;;;5095132;28;20047;-85
2022/06/02 07:42:44;;;;;;;1999.90;999.90;;;15.50;1.00;;;;;;5113947;28;20083;-85
2022/06/02 07:45:16;;;;;;;1999.90;788.72;;;16.50;1.00;;;;;;5095078;28;20131;-86
2022/06/02 07:48:02;;;;;;;1999.90;999.90;;;17.10;1.00;;;;;;5113102;28;20040;-87
2022/06/02 07:50:35;;;;;;;1999.90;999.90;;;18.40;1.00;;;;;;5113002;28;20115;-85
2022/06/02 07:53:28;;;;;;;1999.90;999.90;;;19.60;1.00;;;;;;5093980;28;20048;-84
2022/06/02 07:56:14;;;;;;;1999.90;999.90;;;20.70;1.00;;;;;;5113121;28;20131;-84
2022/06/02 07:59:16;;;;;;;1484.43;960.38;;;21.50;1.00;;;;;;5095087;28;20040;-89
2022/06/02 08:01:53;;;;;;;1999.90;999.90;;;21.30;1.00;;;;;;5112449;28;20083;-90
2022/06/02 08:04:34;;;;;;;1265.00;999.67;;;21.50;1.00;;;;;;5113055;28;20051;-84
2022/06/02 08:07:25;;;;;;;1999.90;999.90;;;21.80;1.00;;;;;;5077637;28;20055;-84
2022/06/02 08:10:07;;;;;;;1999.90;999.90;;;21.40;1.00;;;;;;5094281;28;20051;-84
2022/06/02 08:12:45;;;;;;;1999.90;999.90;;;21.10;1.00;;;;;;5113026;28;20052;-85
2022/06/02 08:15:20;;;;;;;1999.90;999.90;;;21.00;1.00;;;;;;5077746;28;20405;-85
2022/06/02 08:18:00;;;;;;;1999.90;999.90;;;21.00;1.00;;;;;;5112560;28;20063;-84
2022/06/02 08:20:29;;;;;;;1999.90;999.90;;;20.70;1.00;;;;;;5112250;28;20055;-84
2022/06/02 08:23:11;;;;;;;1999.90;999.90;;;20.00;1.00;;;;;;5094130;28;20059;-84
2022/06/02 08:26:03;;;;;;;1999.90;999.90;;;19.80;1.00;;;;;;5094681;28;20119;-84
2022/06/02 08:28:57;;;;;;;1999.90;999.90;;;20.20;1.00;;;;;;5077103;28;20082;-84
2022/06/02 08:32:13;;;;;;;1999.90;999.90;;;21.50;1.00;;;;;;5112723;28;20044;-83
2022/06/02 08:35:16;;;;;;;1999.90;999.90;;;22.90;1.00;;;;;;5055966;28;20078;-84
2022/06/02 08:38:07;;;;;;;1999.90;999.90;;;22.90;99.90;;;;;;5112616;28;20036;-83
2022/06/02 08:40:51;;;;;;;1999.90;999.90;;;22.10;1.00;;;;;;5112562;28;20043;-84
2022/06/02 08:43:51;;;;;;;1326.30;999.90;;;21.90;1.00;;;;;;5094078;28;20093;-85
2022/06/02 08:46:55;;;;;;;1999.90;999.90;;;23.20;1.00;;;;;;5094378;28;20055;-85
2022/06/02 08:49:45;;;;;;;1544.20;999.90;;;25.20;99.90;;;;;;5093907;28;20357;-83
2022/06/02 08:52:38;;;;;;;1075.78;968.85;;;25.50;99.90;;;;;;5112128;28;20053;-84
2022/06/02 08:55:29;;;;;;;1435.90;999.90;;;24.90;99.90;;;;;;5111440;28;20051;-84
2022/06/02 08:57:55;;;;;;;1371.05;999.90;;;24.60;99.90;;;;;;5111942;28;20118;-83
2022/06/02 09:01:02;;;;;;;1006.08;907.00;;;23.90;99.90;;;;;;5093774;28;20394;-84
2022/06/02 09:03:49;;;;;;;1073.65;958.78;;;22.70;99.90;;;;;;5092913;28;20445;-83
2022/06/02 09:06:36;;;;;;;1192.00;997.90;;;21.70;99.90;;;;;;5112380;28;20088;-84
2022/06/02 09:09:19;;;;;;;1225.82;999.90;;;21.40;99.90;;;;;;5093108;28;20087;-84
2022/06/02 09:12:07;;;;;;;1448.88;999.90;;;22.50;99.90;;;;;;5093477;28;20055;-84
2022/06/02 09:14:38;;;;;;;1056.38;943.78;;;24.50;99.90;;;;;;5093546;28;20044;-84
2022/06/02 09:17:14;;;;;;;1038.40;930.70;;;25.00;99.90;;;;;;5111520;28;20051;-84
2022/06/02 09:20:14;;;;;;;1108.97;992.08;;;24.10;99.90;;;;;;5112254;28;20058;-83
2022/06/02 09:22:52;;;;;;;1164.75;982.33;;;23.10;99.90;;;;;;5093885;28;20090;-83
2022/06/02 09:25:21;;;;;;;;;;;22.30;99.90;;;;;;5093993;28;20062;-84
2022/06/02 09:28:06;;;;;;;835.78;762.97;;;22.80;99.90;;;;;;5093382;28;20023;-84
2022/06/02 09:30:47;;;;;;;922.95;846.85;;;24.10;99.90;;;;;;5093854;28;20127;-84
2022/06/02 09:33:43;;;;;;;598.17;554.67;;;25.90;99.90;;;;;;5093060;28;20050;-84
2022/06/02 09:36:50;;;;;;;652.92;603.50;;;26.90;99.90;;;;;;5111247;28;20047;-84
2022/06/02 09:39:33;;;;;;;729.95;668.15;;;27.50;99.90;;;;;;5081988;28;20098;-86
2022/06/02 09:42:20;;;;;;;821.17;744.47;;;28.20;99.90;;;;;;5076226;28;20051;-84
2022/06/02 09:45:25;;;;;;;600.22;558.17;;;27.00;99.90;;;;;;5111585;28;20039;-84
2022/06/02 09:48:18;;;;;;;544.85;506.92;;;26.80;99.90;;;;;;5075680;28;20048;-84
2022/06/02 09:51:18;;;;;;;733.70;676.17;;;26.20;99.90;;;;;;5111567;28;20119;-84
2022/06/02 09:54:02;;;;;;;579.60;538.25;;;25.30;99.90;;;;;;5076426;28;20111;-84
2022/06/02 09:57:01;;;;;;;734.78;674.08;;;24.30;99.90;;;;;;5093406;28;20057;-84
2022/06/02 09:59:41;;;;;;;587.47;545.67;;;23.70;99.90;;;;;;5111437;28;20143;-84
2022/06/02 10:02:07;;;;;;;795.67;725.20;;;23.10;99.90;;;;;;5091617;28;20044;-84
2022/06/02 10:05:05;;;;;;;853.70;779.17;;;22.50;99.90;;;;;;5092679;28;20109;-84
2022/06/02 10:08:12;;;;;;;786.45;726.28;;;21.80;99.90;;;;;;5111202;28;20075;-84
2022/06/02 10:11:11;;;;;;;748.83;695.45;;;21.50;99.90;;;;;;5093065;28;20065;-84
2022/06/02 10:14:02;;;;;;;689.80;640.30;;;22.90;99.90;;;;;;5053227;28;20133;-83
2022/06/02 10:16:46;;;;;;;694.35;643.53;;;25.20;99.90;;;;;;5110991;28;20531;-83
2022/06/02 10:19:24;;;;;;;629.53;585.17;;;27.20;99.90;;;;;;5075657;28;20088;-84
2022/06/02 10:21:58;;;;;;;647.17;602.30;;;28.80;99.90;;;;;;5093054;28;20043;-84
2022/06/02 10:24:39;;;;;;;641.90;595.83;;;29.20;99.90;;;;;;5092935;28;20372;-84
2022/06/02 10:27:32;;;;;;;588.03;548.05;;;29.30;99.90;;;;;;5110878;28;20126;-84
2022/06/02 10:30:43;;;;;;;430.73;401.40;;;28.40;99.90;;;;;;5092614;28;20094;-84
2022/06/02 10:33:24;;;;;;;303.70;283.27;;;27.10;99.90;;;;;;5105371;28;20059;-84
2022/06/02 10:36:09;;;;;;;462.77;430.40;;;26.20;99.90;;;;;;5093174;28;20051;-84
2022/06/02 10:38:48;;;;;;;403.48;377.10;;;25.40;99.90;;;;;;5091748;28;20044;-83
2022/06/02 10:41:32;;;;;;;;;;;24.50;99.90;;;;;;5092950;28;20058;-84
2022/06/02 10:44:19;;;;;;;361.30;338.58;;;23.80;99.90;;;;;;5093998;28;19923;-83
2022/06/02 10:47:03;;;;;;;732.97;673.67;;;23.00;99.90;;;;;;5114408;28;20051;-84
2022/06/02 10:49:42;;;;;;;834.13;760.45;;;22.50;99.90;;;;;;5096020;28;20500;-84
2022/06/02 10:52:19;;;;;;;793.55;724.25;;;23.20;99.90;;;;;;5095961;28;20043;-83
2022/06/02 10:55:14;;;;;;;611.67;569.33;;;25.10;99.90;;;;;;5114264;28;20047;-83
2022/06/02 10:58:01;;;;;;;707.30;657.25;;;27.30;99.90;;;;;;5096137;28;20078;-82
2022/06/02 11:00:42;;;;;;;629.67;586.67;;;28.50;99.90;;;;;;5096429;28;20036;-83
2022/06/02 11:03:30;;;;;;;655.00;608.83;;;29.40;99.90;;;;;;5094591;28;20094;-83
2022/06/02 11:06:33;;;;;;;550.00;511.53;;;27.50;99.90;;;;;;5079155;28;20044;-84
2022/06/02 11:09:36;;;;;;;578.38;533.85;;;27.20;99.90;;;;;;5095143;28;20126;-83
2022/06/02 11:12:14;;;;;;;617.47;574.35;;;26.00;99.90;;;;;;5113792;28;20059;-84
2022/06/02 11:15:08;;;;;;;631.67;586.23;;;25.30;99.90;;;;;;5095734;28;20055;-83
2022/06/02 11:18:11;;;;;;;619.50;577.83;;;25.90;99.90;;;;;;5113940;28;20756;-82
2022/06/02 11:21:05;;;;;;;643.28;598.30;;;27.50;99.90;;;;;;5095998;28;20050;-84
2022/06/02 11:23:33;;;;;;;529.95;494.92;;;29.20;99.90;;;;;;5095549;28;20079;-83
2022/06/02 11:26:14;;;;;;;654.40;609.15;;;30.30;99.90;;;;;;5095730;28;20362;-84
2022/06/02 11:29:31;;;;;;;700.67;651.72;;;30.60;99.90;;;;;;5095422;28;20094;-84
2022/06/02 11:32:03;;;;;;;716.22;666.67;;;30.60;99.90;;;;;;5095840;28;20454;-84
2022/06/02 11:34:50;;;;;;;555.78;515.95;;;30.40;99.90;;;;;;5095745;28;20059;-83
2022/06/02 11:37:21;;;;;;;724.63;672.97;;;30.30;99.90;;;;;;5094629;28;20089;-84
2022/06/02 11:39:56;;;;;;;936.45;852.33;;;31.20;99.90;;;;;;5113548;28;20411;-84
2022/06/02 11:42:46;;;;;;;500.52;464.90;;;32.00;99.90;;;;;;5095105;28;20725;-83
2022/06/02 11:45:18;;;;;;;544.08;505.48;;;32.20;99.90;;;;;;5095321;28;20055;-83
2022/06/02 11:48:03;;;;;;;765.05;701.00;;;32.40;99.90;;;;;;5094934;28;20364;-84
2022/06/02 11:50:51;;;;;;;477.80;445.38;;;32.70;99.90;;;;;;5095277;28;20055;-83
2022/06/02 11:53:29;;;;;;;938.40;858.97;;;33.10;99.90;;;;;;5078294;28;20457;-84
2022/06/02 11:56:05;;;;;;;788.40;722.65;;;33.30;99.90;;;;;;5077818;28;20408;-85
2022/06/02 11:58:48;;;;;;;720.47;663.03;;;33.20;99.90;;;;;;5095483;28;20047;-87
2022/06/02 12:01:24;;;;;;;886.42;812.40;;;32.00;99.90;;;;;;5076788;28;20468;-84
2022/06/02 12:04:02;;;;;;;1007.90;916.00;;;31.30;99.90;;;;;;5095205;28;20044;-84
2022/06/02 12:06:58;;;;;;;829.75;763.80;;;31.30;99.90;;;;;;5094790;28;20066;-83
2022/06/02 12:10:00;;;;;;;909.67;832.33;;;32.10;99.90;;;;;;5112297;28;20062;-83
2022/06/02 12:12:32;;;;;;;870.30;802.10;;;31.80;99.90;;;;;;5094444;28;20043;-83
2022/06/02 12:15:07;;;;;;;673.15;625.97;;;32.20;99.90;;;;;;5094824;28;20150;-83
2022/06/02 12:17:59;;;;;;;645.05;599.72;;;32.40;99.90;;;;;;5094476;28;20090;-84
2022/06/02 12:21:14;;;;;;;690.03;642.00;;;31.10;99.90;;;;;;5077414;28;20054;-83
2022/06/02 12:24:08;;;;;;;736.47;684.83;;;29.40;99.90;;;;;;5047483;28;20051;-84
2022/06/02 12:26:58;;;;;;;685.92;638.13;;;28.00;99.90;;;;;;5094509;28;20050;-83
2022/06/02 12:29:58;;;;;;;627.60;585.38;;;26.90;99.90;;;;;;5094303;28;20047;-84
2022/06/02 12:32:24;;;;;;;654.65;611.30;;;26.00;99.90;;;;;;5077109;28;20054;-83
2022/06/02 12:34:58;;;;;;;540.67;506.48;;;25.30;99.90;;;;;;5077566;28;20043;-83
2022/06/02 12:37:55;;;;;;;624.97;582.97;;;24.90;99.90;;;;;;5093827;28;20120;-84
2022/06/02 12:40:23;;;;;;;611.30;570.70;;;24.70;99.90;;;;;;5093633;28;20039;-83
2022/06/02 12:42:58;;;;;;;443.35;416.55;;;24.50;99.90;;;;;;5094236;28;20040;-85
2022/06/02 12:45:52;;;;;;;478.33;449.17;;;24.30;99.90;;;;;;5076883;28;20051;-83
2022/06/02 12:48:26;;;;;;;374.67;352.20;;;24.10;99.90;;;;;;5111799;28;20075;-83
2022/06/02 12:51:17;;;;;;;453.50;426.42;;;23.80;99.90;;;;;;5077174;28;20067;-83
2022/06/02 12:53:49;;;;;;;452.73;426.15;;;23.30;99.90;;;;;;5093554;28;20047;-84
2022/06/02 12:56:35;;;;;;;375.23;353.17;;;22.90;99.90;;;;;;5093453;28;20040;-83
2022/06/02 12:59:25;;;;;;;774.80;715.58;;;22.50;99.90;;;;;;5093596;28;20079;-83
2022/06/02 13:02:29;;;;;;;694.15;643.15;;;22.40;99.90;;;;;;5092347;28;20058;-83
2022/06/02 13:05:32;;;;;;;653.78;608.67;;;22.30;99.90;;;;;;5093277;28;20063;-83
2022/06/02 13:08:36;;;;;;;755.22;700.28;;;22.30;99.90;;;;;;5092928;28;20473;-83
2022/06/02 13:11:12;;;;;;;887.85;821.15;;;22.30;99.90;;;;;;5093781;28;20472;-83
2022/06/02 13:14:10;;;;;;;941.38;867.80;;;22.20;99.90;;;;;;5092921;28;20507;-83
2022/06/02 13:17:01;;;;;;;961.33;884.80;;;22.20;99.90;;;;;;5111303;28;20048;-83
2022/06/02 13:19:52;;;;;;;988.63;907.60;;;22.10;99.90;;;;;;5093155;28;20123;-83
2022/06/02 13:22:24;;;;;;;942.00;867.83;;;22.00;99.90;;;;;;5092605;28;20093;-82
2022/06/02 13:25:36;;;;;;;941.75;868.10;;;22.00;99.90;;;;;;5092822;28;20417;-84
2022/06/02 13:28:21;;;;;;;887.28;818.80;;;22.10;99.90;;;;;;5093120;28;20075;-83
2022/06/02 13:31:06;;;;;;;926.65;855.90;;;22.20;99.90;;;;;;5093152;28;20048;-83
2022/06/02 13:33:50;;;;;;;831.42;770.63;;;22.20;99.90;;;;;;5092862;28;20096;-83
2022/06/02 13:36:57;;;;;;;816.28;757.10;;;22.20;99.90;;;;;;5092999;28;20039;-83
2022/06/02 13:39:35;;;;;;;870.80;804.75;;;22.10;99.90;;;;;;5077878;28;20063;-83
2022/06/02 13:42:37;;;;;;;764.20;709.38;;;21.20;99.90;;;;;;5093524;28;20047;-83
2022/06/02 13:45:22;;;;;;;815.65;756.30;;;22.00;99.90;;;;;;5062780;28;20078;-83
2022/06/02 13:48:21;;;;;;;774.70;717.35;;;21.90;99.90;;;;;;5092875;28;20168;-84